createdAt,value
2023-04-16T00:01:22.799Z,4.19
2023-04-16T00:03:50.679Z,4.20
2023-04-16T00:06:18.399Z,4.20
2023-04-16T00:08:45.982Z,4.21
2023-04-16T00:11:13.639Z,4.18
2023-04-16T00:13:41.180Z,4.12
2023-04-16T00:16:08.805Z,4.06
2023-04-16T00:18:36.349Z,4.01
2023-04-16T00:21:04.016Z,3.96
2023-04-16T00:23:31.557Z,3.90
2023-04-16T00:25:59.122Z,3.84
2023-04-16T00:28:27.165Z,3.82
2023-04-16T00:30:55.343Z,3.80
2023-04-16T00:33:23.858Z,3.77
2023-04-16T00:35:51.446Z,3.72
2023-04-16T00:38:18.947Z,3.67
2023-04-16T00:40:46.473Z,3.60
2023-04-16T00:43:22.573Z,3.51
2023-04-16T00:45:50.815Z,3.46
2023-04-16T00:48:19.713Z,3.43
2023-04-16T00:50:48.135Z,3.39
2023-04-16T00:53:15.678Z,3.34
2023-04-16T00:55:43.259Z,3.30
2023-04-16T00:58:10.878Z,3.27
2023-04-16T01:00:38.445Z,3.29
2023-04-16T01:03:06.375Z,3.38
2023-04-16T01:05:36.053Z,3.41
2023-04-16T01:08:03.694Z,3.44
2023-04-16T01:10:31.301Z,3.48
2023-04-16T01:12:58.892Z,3.47
2023-04-16T01:15:26.422Z,3.44
2023-04-16T01:17:53.976Z,3.39
2023-04-16T01:20:21.647Z,3.37
2023-04-16T01:22:49.190Z,3.35
2023-04-16T01:25:16.801Z,3.31
2023-04-16T01:27:44.353Z,3.28
2023-04-16T01:30:12.014Z,3.26
2023-04-16T01:32:39.638Z,3.23
2023-04-16T01:35:07.519Z,3.20
2023-04-16T01:37:35.085Z,3.19
2023-04-16T01:40:02.702Z,3.15
2023-04-16T01:42:30.247Z,3.11
2023-04-16T01:44:57.820Z,3.15
2023-04-16T01:47:25.451Z,3.19
2023-04-16T01:49:53.090Z,3.24
2023-04-16T01:52:20.621Z,3.29
2023-04-16T01:54:48.189Z,3.32
2023-04-16T01:57:15.723Z,3.35
2023-04-16T01:59:43.265Z,3.36
2023-04-16T02:02:12.397Z,3.36
2023-04-16T02:04:41.973Z,3.37
2023-04-16T02:07:09.929Z,3.38
2023-04-16T02:09:39.095Z,3.39
2023-04-16T02:12:07.253Z,3.43
2023-04-16T02:14:34.831Z,3.44
2023-04-16T02:17:02.440Z,3.43
2023-04-16T02:19:30.034Z,3.43
2023-04-16T02:21:57.606Z,3.39
2023-04-16T02:24:25.159Z,3.34
2023-04-16T02:26:52.990Z,3.28
2023-04-16T02:29:20.694Z,3.21
2023-04-16T02:31:48.812Z,3.14
2023-04-16T02:34:16.457Z,3.08
2023-04-16T02:36:44.003Z,3.02
2023-04-16T02:39:11.699Z,2.95
2023-04-16T02:41:39.345Z,2.88
2023-04-16T02:44:07.027Z,2.82
2023-04-16T02:46:34.542Z,2.75
2023-04-16T02:49:02.076Z,2.68
2023-04-16T02:51:29.621Z,2.61
2023-04-16T02:53:57.149Z,2.54
2023-04-16T02:56:24.721Z,2.47
2023-04-16T02:58:52.253Z,2.41
2023-04-16T03:01:19.800Z,2.34
2023-04-16T03:03:47.369Z,2.29
2023-04-16T03:06:14.926Z,2.27
2023-04-16T03:08:42.441Z,2.28
2023-04-16T03:11:09.988Z,2.29
2023-04-16T03:13:37.552Z,2.26
2023-04-16T03:16:05.515Z,2.24
2023-04-16T03:18:33.086Z,2.23
2023-04-16T03:21:00.618Z,2.26
2023-04-16T03:23:28.119Z,2.31
2023-04-16T03:25:55.634Z,2.37
2023-04-16T03:28:23.230Z,2.50
2023-04-16T03:30:52.304Z,2.66
2023-04-16T03:33:21.233Z,2.78
2023-04-16T03:35:57.955Z,2.87
2023-04-16T03:38:26.144Z,2.96
2023-04-16T03:40:53.778Z,3.04
2023-04-16T03:43:21.329Z,3.10
2023-04-16T03:45:48.934Z,3.14
2023-04-16T03:48:16.468Z,3.17
2023-04-16T03:50:47.256Z,3.20
2023-04-16T03:53:15.031Z,3.25
2023-04-16T03:55:43.156Z,3.29
2023-04-16T03:58:10.711Z,3.31
2023-04-16T04:00:41.794Z,3.35
2023-04-16T04:03:10.524Z,3.40
2023-04-16T04:05:40.514Z,3.45
2023-04-16T04:08:08.669Z,3.50
2023-04-16T04:10:36.412Z,3.55
2023-04-16T04:13:05.544Z,3.60
2023-04-16T04:15:33.303Z,3.66
2023-04-16T04:18:01.107Z,3.73
2023-04-16T04:20:28.718Z,3.81
2023-04-16T04:22:56.253Z,3.88
2023-04-16T04:25:23.979Z,3.94
2023-04-16T04:27:51.535Z,3.99
2023-04-16T04:30:19.181Z,4.07
2023-04-16T04:32:46.703Z,4.14
2023-04-16T04:35:14.265Z,4.21
2023-04-16T04:37:41.855Z,4.27
2023-04-16T04:40:09.820Z,4.31
2023-04-16T04:42:37.998Z,4.36
2023-04-16T04:45:06.286Z,4.41
2023-04-16T04:47:33.893Z,4.45
2023-04-16T04:50:01.495Z,4.48
2023-04-16T04:52:29.139Z,4.53
2023-04-16T04:54:56.916Z,4.59
2023-04-16T04:57:24.463Z,4.63
2023-04-16T04:59:52.000Z,4.65
2023-04-16T05:02:19.686Z,4.70
2023-04-16T05:04:47.303Z,4.77
2023-04-16T05:07:14.855Z,4.84
2023-04-16T05:09:42.367Z,4.94
2023-04-16T05:12:09.892Z,5.03
2023-04-16T05:14:37.403Z,5.07
2023-04-16T05:17:05.052Z,5.13
2023-04-16T05:19:32.645Z,5.17
2023-04-16T05:22:00.168Z,5.22
2023-04-16T05:24:27.722Z,5.29
2023-04-16T05:26:55.253Z,5.34
2023-04-16T05:29:22.790Z,5.34
2023-04-16T05:31:50.364Z,5.37
2023-04-16T05:34:17.902Z,5.39
2023-04-16T05:36:45.484Z,5.42
2023-04-16T05:39:13.058Z,5.47
2023-04-16T05:41:40.731Z,5.54
2023-04-16T05:44:08.268Z,5.65
2023-04-16T05:46:35.940Z,5.78
2023-04-16T05:49:03.533Z,5.93
2023-04-16T05:51:31.074Z,6.07
2023-04-16T05:53:58.790Z,6.23
2023-04-16T05:56:26.305Z,6.44
2023-04-16T05:58:53.797Z,6.70
2023-04-16T06:01:22.378Z,6.96
2023-04-16T06:03:50.043Z,7.20
2023-04-16T06:06:17.649Z,7.48
2023-04-16T06:08:45.210Z,7.77
2023-04-16T06:11:12.792Z,8.05
2023-04-16T06:13:40.383Z,8.21
2023-04-16T06:16:08.206Z,8.28
2023-04-16T06:18:35.746Z,8.44
2023-04-16T06:21:04.056Z,8.73
2023-04-16T06:23:31.698Z,9.01
2023-04-16T06:25:59.259Z,9.12
2023-04-16T06:28:26.785Z,8.94
2023-04-16T06:30:54.450Z,8.89
2023-04-16T06:33:22.052Z,8.95
2023-04-16T06:35:49.649Z,9.07
2023-04-16T06:38:17.225Z,9.05
2023-04-16T06:40:44.900Z,9.15
2023-04-16T06:43:12.556Z,9.34
2023-04-16T06:45:40.120Z,9.49
2023-04-16T06:48:08.090Z,9.62
2023-04-16T06:50:35.734Z,9.71
2023-04-16T06:53:03.374Z,9.62
2023-04-16T06:55:30.937Z,9.42
2023-04-16T06:57:58.603Z,9.30
2023-04-16T07:00:26.262Z,9.46
2023-04-16T07:02:56.299Z,9.69
2023-04-16T07:05:25.754Z,9.84
2023-04-16T07:07:53.497Z,9.80
2023-04-16T07:10:21.341Z,9.74
2023-04-16T07:12:49.189Z,9.67
2023-04-16T07:15:17.031Z,9.63
2023-04-16T07:17:44.634Z,9.76
2023-04-16T07:20:12.525Z,9.80
2023-04-16T07:22:40.100Z,9.73
2023-04-16T07:25:08.306Z,9.72
2023-04-16T07:27:35.999Z,9.84
2023-04-16T07:30:03.778Z,10.01
2023-04-16T07:32:31.352Z,10.31
2023-04-16T07:34:58.889Z,10.64
2023-04-16T07:37:26.430Z,10.87
2023-04-16T07:39:55.167Z,10.98
2023-04-16T07:42:24.608Z,11.14
2023-04-16T07:44:52.190Z,11.10
2023-04-16T07:47:19.906Z,11.18
2023-04-16T07:49:47.498Z,11.32
2023-04-16T07:52:15.109Z,11.52
2023-04-16T07:54:42.625Z,11.80
2023-04-16T07:57:10.142Z,12.04
2023-04-16T07:59:37.811Z,12.37
2023-04-16T08:02:05.512Z,12.68
2023-04-16T08:04:33.466Z,12.86
2023-04-16T08:07:01.311Z,13.05
2023-04-16T08:09:29.050Z,13.21
2023-04-16T08:11:56.653Z,13.46
2023-04-16T08:14:24.202Z,13.68
2023-04-16T08:16:51.826Z,13.83
2023-04-16T08:19:19.448Z,13.75
2023-04-16T08:21:47.283Z,13.71
2023-04-16T08:24:14.820Z,14.00
2023-04-16T08:26:42.395Z,14.16
2023-04-16T08:29:10.222Z,14.33
2023-04-16T08:31:37.987Z,14.43
2023-04-16T08:34:05.587Z,14.42
2023-04-16T08:36:33.135Z,14.37
2023-04-16T08:39:00.666Z,14.32
2023-04-16T08:41:32.157Z,14.24
2023-04-16T08:44:04.621Z,14.21
2023-04-16T08:46:36.497Z,14.14
2023-04-16T08:49:08.438Z,14.02
2023-04-16T08:51:36.535Z,14.03
2023-04-16T08:54:08.542Z,14.08
2023-04-16T08:56:37.394Z,14.19
2023-04-16T08:59:05.142Z,14.33
2023-04-16T09:01:33.496Z,14.37
2023-04-16T09:04:02.789Z,14.31
2023-04-16T09:06:31.050Z,14.15
2023-04-16T09:08:59.400Z,14.08
2023-04-16T09:11:27.452Z,14.16
2023-04-16T09:13:55.092Z,14.31
2023-04-16T09:16:24.836Z,14.64
2023-04-16T09:18:52.452Z,14.92
2023-04-16T09:21:23.383Z,15.10
2023-04-16T09:23:53.366Z,14.77
2023-04-16T09:26:21.030Z,14.55
2023-04-16T09:28:49.254Z,14.44
2023-04-16T09:31:18.633Z,14.31
2023-04-16T09:34:05.424Z,14.19
2023-04-16T09:36:33.608Z,14.13
2023-04-16T09:39:02.167Z,14.45
2023-04-16T09:41:32.415Z,14.72
2023-04-16T09:44:01.848Z,15.08
2023-04-16T09:46:35.830Z,15.73
2023-04-16T09:49:11.126Z,16.49
2023-04-16T09:51:41.637Z,17.50
2023-04-16T09:54:09.867Z,19.16
2023-04-16T09:56:47.010Z,20.60
2023-04-16T09:59:21.587Z,20.74
2023-04-16T10:01:50.386Z,19.73
2023-04-16T10:04:18.257Z,18.74
2023-04-16T10:07:03.006Z,18.05
2023-04-16T10:09:40.383Z,17.47
2023-04-16T10:12:09.155Z,17.28
2023-04-16T10:14:36.722Z,18.23
2023-04-16T10:17:04.607Z,18.26
2023-04-16T10:19:32.767Z,19.34
2023-04-16T10:22:00.850Z,21.26
2023-04-16T10:24:29.969Z,22.97
2023-04-16T10:26:58.477Z,23.69
2023-04-16T10:29:28.758Z,22.83
2023-04-16T10:31:57.174Z,21.07
2023-04-16T10:34:25.450Z,19.82
2023-04-16T10:36:54.072Z,19.30
2023-04-16T10:39:23.349Z,18.79
2023-04-16T10:42:06.117Z,18.55
2023-04-16T10:44:33.777Z,20.52
2023-04-16T10:47:01.290Z,21.01
2023-04-16T10:49:28.887Z,21.60
2023-04-16T10:52:11.081Z,21.21
2023-04-16T10:54:40.143Z,20.64
2023-04-16T10:57:15.692Z,20.20
2023-04-16T10:59:44.650Z,20.49
2023-04-16T11:02:18.072Z,21.20
2023-04-16T11:04:49.334Z,23.59
2023-04-16T11:07:31.341Z,25.07
2023-04-16T11:10:00.509Z,25.80
2023-04-16T11:12:35.164Z,25.08
2023-04-16T11:15:07.877Z,24.33
2023-04-16T11:17:49.892Z,24.04
2023-04-16T11:20:20.979Z,24.26
2023-04-16T11:22:49.957Z,24.45
2023-04-16T11:25:21.092Z,25.58
2023-04-16T11:27:49.530Z,26.73
2023-04-16T11:30:17.558Z,26.83
2023-04-16T11:32:45.891Z,27.57
2023-04-16T11:35:16.029Z,29.49
2023-04-16T11:37:44.090Z,30.47
2023-04-16T11:40:12.292Z,31.22
2023-04-16T11:42:41.616Z,31.68
2023-04-16T11:45:11.340Z,31.20
2023-04-16T11:47:45.116Z,30.38
2023-04-16T11:50:30.637Z,28.68
2023-04-16T11:53:05.012Z,26.84
2023-04-16T11:55:32.633Z,25.66
2023-04-16T11:58:12.188Z,25.01
2023-04-16T12:00:39.764Z,24.21
2023-04-16T12:03:07.606Z,23.69
2023-04-16T12:05:38.161Z,23.31
2023-04-16T12:08:07.926Z,23.61
2023-04-16T12:10:38.004Z,24.11
2023-04-16T12:13:16.496Z,23.95
2023-04-16T12:16:16.023Z,23.98
2023-04-16T12:18:59.640Z,23.84
2023-04-16T12:21:43.208Z,23.78
2023-04-16T12:24:13.221Z,23.19
2023-04-16T12:26:43.158Z,22.34
2023-04-16T12:29:39.856Z,21.93
2023-04-16T12:32:21.169Z,21.85
2023-04-16T12:34:51.930Z,24.09
2023-04-16T12:37:19.467Z,24.95
2023-04-16T12:39:48.046Z,24.50
2023-04-16T12:42:15.758Z,24.14
2023-04-16T12:44:43.277Z,23.67
2023-04-16T12:47:11.122Z,23.44
2023-04-16T12:49:38.751Z,23.36
2023-04-16T12:52:11.635Z,25.31
2023-04-16T12:54:39.279Z,28.06
2023-04-16T12:57:06.999Z,29.77
2023-04-16T13:00:01.122Z,31.90
2023-04-16T13:02:30.162Z,34.01
2023-04-16T13:04:58.165Z,35.34
2023-04-16T13:07:25.727Z,36.07
2023-04-16T13:09:53.821Z,35.99
2023-04-16T13:12:21.375Z,33.95
2023-04-16T13:14:48.950Z,31.57
2023-04-16T13:17:16.475Z,29.69
2023-04-16T13:19:44.076Z,28.91
2023-04-16T13:22:11.962Z,30.19
2023-04-16T13:24:39.548Z,29.68
2023-04-16T13:27:07.247Z,28.59
2023-04-16T13:29:34.928Z,27.62
2023-04-16T13:32:03.417Z,27.57
2023-04-16T13:34:31.178Z,28.98
2023-04-16T13:36:58.755Z,30.23
2023-04-16T13:39:26.382Z,31.82
2023-04-16T13:41:53.957Z,33.54
2023-04-16T13:44:21.498Z,33.27
2023-04-16T13:46:49.054Z,31.91
2023-04-16T13:49:16.624Z,30.50
2023-04-16T13:51:44.214Z,29.15
2023-04-16T13:54:11.729Z,28.12
2023-04-16T13:56:39.716Z,27.45
2023-04-16T13:59:08.090Z,27.05
2023-04-16T14:01:35.932Z,26.68
2023-04-16T14:04:04.089Z,26.31
2023-04-16T14:06:32.698Z,26.67
2023-04-16T14:09:00.330Z,27.42
2023-04-16T14:11:28.175Z,26.47
2023-04-16T14:13:55.802Z,25.53
2023-04-16T14:16:23.455Z,26.07
2023-04-16T14:18:51.076Z,27.58
2023-04-16T14:21:18.791Z,28.45
2023-04-16T14:23:46.346Z,28.88
2023-04-16T14:26:13.993Z,29.52
2023-04-16T14:28:41.727Z,29.15
2023-04-16T14:31:09.364Z,29.02
2023-04-16T14:33:36.899Z,29.18
2023-04-16T14:36:16.018Z,28.95
2023-04-16T14:38:48.752Z,29.78
2023-04-16T14:41:16.282Z,31.14
2023-04-16T14:43:43.888Z,32.24
2023-04-16T14:46:11.538Z,33.24
2023-04-16T14:48:39.108Z,33.80
2023-04-16T14:51:06.817Z,32.80
2023-04-16T14:53:34.414Z,30.23
2023-04-16T14:56:02.127Z,28.50
2023-04-16T14:58:29.748Z,26.89
2023-04-16T15:01:00.303Z,25.93
2023-04-16T15:03:28.158Z,25.03
2023-04-16T15:05:56.761Z,24.37
2023-04-16T15:08:24.503Z,23.66
2023-04-16T15:10:52.084Z,22.95
2023-04-16T15:13:19.671Z,22.39
2023-04-16T15:15:47.325Z,22.23
2023-04-16T15:18:15.126Z,22.16
2023-04-16T15:20:42.659Z,21.86
2023-04-16T15:23:10.236Z,21.42
2023-04-16T15:25:37.782Z,21.06
2023-04-16T15:28:05.304Z,20.51
2023-04-16T15:30:32.968Z,19.88
2023-04-16T15:33:00.680Z,19.75
2023-04-16T15:35:28.341Z,20.16
2023-04-16T15:37:55.879Z,20.19
2023-04-16T15:40:24.676Z,20.08
2023-04-16T15:42:52.240Z,19.98
2023-04-16T15:45:19.906Z,19.88
2023-04-16T15:47:47.437Z,19.74
2023-04-16T15:50:15.144Z,19.53
2023-04-16T15:52:42.857Z,19.38
2023-04-16T15:55:10.398Z,19.23
2023-04-16T15:57:38.409Z,19.10
2023-04-16T16:00:08.688Z,19.05
2023-04-16T16:02:36.892Z,19.41
2023-04-16T16:05:04.860Z,19.71
2023-04-16T16:07:32.464Z,19.70
2023-04-16T16:10:00.004Z,19.61
2023-04-16T16:12:27.643Z,19.49
2023-04-16T16:14:55.749Z,19.37
2023-04-16T16:17:23.416Z,19.33
2023-04-16T16:19:51.668Z,19.34
2023-04-16T16:22:19.456Z,19.35
2023-04-16T16:24:47.502Z,19.40
2023-04-16T16:27:15.278Z,19.41
2023-04-16T16:29:42.847Z,19.41
2023-04-16T16:32:11.569Z,19.35
2023-04-16T16:34:39.433Z,19.33
2023-04-16T16:37:07.156Z,19.24
2023-04-16T16:39:36.569Z,19.13
2023-04-16T16:42:05.479Z,19.00
2023-04-16T16:44:33.092Z,18.89
2023-04-16T16:47:00.763Z,18.77
2023-04-16T16:49:28.294Z,18.85
2023-04-16T16:51:55.898Z,18.87
2023-04-16T16:54:23.410Z,18.70
2023-04-16T16:56:52.757Z,18.48
2023-04-16T16:59:20.296Z,18.23
2023-04-16T17:01:47.861Z,17.96
2023-04-16T17:04:16.586Z,17.74
2023-04-16T17:06:46.262Z,17.51
2023-04-16T17:09:13.985Z,17.29
2023-04-16T17:11:41.647Z,17.10
2023-04-16T17:14:09.158Z,16.92
2023-04-16T17:16:36.762Z,16.74
2023-04-16T17:19:04.384Z,16.49
2023-04-16T17:21:32.108Z,16.23
2023-04-16T17:23:59.697Z,15.97
2023-04-16T17:26:27.232Z,15.72
2023-04-16T17:28:54.811Z,15.47
2023-04-16T17:31:23.484Z,15.24
2023-04-16T17:33:51.884Z,15.01
2023-04-16T17:36:19.435Z,14.73
2023-04-16T17:38:47.092Z,14.49
2023-04-16T17:41:14.631Z,14.24
2023-04-16T17:43:42.963Z,13.99
2023-04-16T17:46:11.985Z,13.75
2023-04-16T17:48:39.583Z,13.52
2023-04-16T17:51:11.742Z,13.31
2023-04-16T17:53:39.351Z,13.11
2023-04-16T17:56:06.870Z,12.92
2023-04-16T17:58:34.452Z,12.75
2023-04-16T18:01:02.961Z,12.59
2023-04-16T18:03:31.853Z,12.43
2023-04-16T18:05:59.553Z,12.26
2023-04-16T18:08:27.220Z,12.12
2023-04-16T18:10:54.767Z,11.96
2023-04-16T18:13:26.609Z,11.83
2023-04-16T18:15:54.374Z,11.68
2023-04-16T18:18:22.114Z,11.56
2023-04-16T18:20:49.835Z,11.44
2023-04-16T18:23:17.507Z,11.32
2023-04-16T18:25:45.114Z,11.22
2023-04-16T18:28:14.042Z,11.12
2023-04-16T18:30:42.654Z,11.03
2023-04-16T18:33:42.730Z,10.93
2023-04-16T18:36:03.110Z,10.81
2023-04-16T18:38:30.894Z,10.69
2023-04-16T18:40:58.538Z,10.60
2023-04-16T18:43:26.190Z,10.50
2023-04-16T18:45:53.815Z,10.40
2023-04-16T18:48:21.620Z,10.31
2023-04-16T18:50:50.359Z,10.22
2023-04-16T18:53:18.055Z,10.14
2023-04-16T18:55:46.660Z,10.07
2023-04-16T18:58:14.200Z,9.97
2023-04-16T19:00:41.754Z,9.88
2023-04-16T19:03:09.372Z,9.79
2023-04-16T19:05:37.063Z,9.71
2023-04-16T19:08:06.069Z,9.62
2023-04-16T19:10:33.973Z,9.53
2023-04-16T19:13:01.634Z,9.44
2023-04-16T19:15:31.193Z,9.35
2023-04-16T19:18:00.329Z,9.25
2023-04-16T19:20:27.952Z,9.15
2023-04-16T19:22:55.521Z,9.05
2023-04-16T19:25:23.145Z,8.97
2023-04-16T19:27:50.800Z,8.90
2023-04-16T19:30:18.586Z,8.85
2023-04-16T19:32:46.216Z,8.76
2023-04-16T19:35:13.897Z,8.67
2023-04-16T19:37:41.481Z,8.56
2023-04-16T19:40:09.541Z,8.47
2023-04-16T19:42:37.076Z,8.37
2023-04-16T19:45:05.108Z,8.27
2023-04-16T19:47:32.676Z,8.18
2023-04-16T19:50:00.243Z,8.09
2023-04-16T19:52:27.800Z,8.01
2023-04-16T19:54:55.329Z,7.93
2023-04-16T19:57:22.875Z,7.86
2023-04-16T19:59:50.532Z,7.77
2023-04-16T20:02:18.075Z,7.70
2023-04-16T20:04:45.691Z,7.64
2023-04-16T20:07:13.219Z,7.57
2023-04-16T20:09:40.874Z,7.50
2023-04-16T20:12:08.438Z,7.45
2023-04-16T20:14:36.036Z,7.40
2023-04-16T20:17:03.678Z,7.35
2023-04-16T20:19:31.271Z,7.31
2023-04-16T20:21:59.099Z,7.27
2023-04-16T20:24:26.692Z,7.21
2023-04-16T20:26:54.296Z,7.17
2023-04-16T20:29:21.902Z,7.12
2023-04-16T20:31:49.486Z,7.12
2023-04-16T20:34:17.062Z,7.13
2023-04-16T20:36:44.633Z,7.10
2023-04-16T20:39:12.611Z,7.06
2023-04-16T20:41:40.503Z,7.01
2023-04-16T20:44:08.216Z,6.95
2023-04-16T20:46:35.820Z,6.89
2023-04-16T20:49:03.383Z,6.82
2023-04-16T20:51:30.934Z,6.74
2023-04-16T20:53:58.535Z,6.66
2023-04-16T20:56:26.165Z,6.60
2023-04-16T20:58:53.735Z,6.54
2023-04-16T21:01:21.325Z,6.46
2023-04-16T21:03:49.056Z,6.38
2023-04-16T21:06:16.761Z,6.31
2023-04-16T21:08:44.385Z,6.23
2023-04-16T21:11:11.997Z,6.17
2023-04-16T21:13:39.575Z,6.11
2023-04-16T21:16:07.405Z,6.07
2023-04-16T21:18:35.268Z,6.02
2023-04-16T21:21:02.842Z,6.00
2023-04-16T21:23:30.375Z,5.98
2023-04-16T21:25:58.038Z,6.01
2023-04-16T21:28:25.570Z,6.05
2023-04-16T21:30:53.147Z,6.09
2023-04-16T21:33:20.681Z,6.15
2023-04-16T21:35:52.203Z,6.18
2023-04-16T21:38:21.198Z,6.21
2023-04-16T21:40:49.962Z,6.22
2023-04-16T21:43:17.552Z,6.24
2023-04-16T21:45:45.064Z,6.25
2023-04-16T21:48:12.608Z,6.27
2023-04-16T21:50:40.331Z,6.28
2023-04-16T21:53:08.043Z,6.25
2023-04-16T21:55:35.877Z,6.21
2023-04-16T21:58:03.671Z,6.17
2023-04-16T22:00:31.229Z,6.14
2023-04-16T22:02:58.976Z,6.10
2023-04-16T22:05:26.781Z,6.06
2023-04-16T22:07:54.293Z,6.01
2023-04-16T22:10:21.794Z,5.95
2023-04-16T22:12:49.342Z,5.88
2023-04-16T22:15:16.862Z,5.81
2023-04-16T22:17:44.385Z,5.73
2023-04-16T22:20:12.009Z,5.65
2023-04-16T22:22:41.500Z,5.56
2023-04-16T22:25:09.684Z,5.48
2023-04-16T22:27:37.837Z,5.41
2023-04-16T22:30:07.348Z,5.39
2023-04-16T22:32:34.928Z,5.36
2023-04-16T22:35:02.474Z,5.32
2023-04-16T22:37:30.018Z,5.27
2023-04-16T22:39:57.568Z,5.20
2023-04-16T22:42:25.104Z,5.13
2023-04-16T22:44:52.635Z,5.05
2023-04-16T22:47:20.179Z,4.99
2023-04-16T22:49:47.707Z,4.95
2023-04-16T22:52:15.234Z,4.90
2023-04-16T22:54:42.756Z,4.85
2023-04-16T22:57:10.269Z,4.83
2023-04-16T22:59:37.843Z,4.85
2023-04-16T23:02:05.443Z,4.91
2023-04-16T23:04:33.101Z,4.98
2023-04-16T23:07:00.677Z,5.08
2023-04-16T23:09:28.249Z,5.16
2023-04-16T23:11:55.810Z,5.23
2023-04-16T23:14:23.421Z,5.27
2023-04-16T23:16:50.956Z,5.30
2023-04-16T23:19:18.489Z,5.32
2023-04-16T23:21:46.008Z,5.35
2023-04-16T23:24:13.526Z,5.36
2023-04-16T23:26:41.202Z,5.37
2023-04-16T23:29:08.891Z,5.38
2023-04-16T23:31:36.661Z,5.38
2023-04-16T23:34:04.346Z,5.37
2023-04-16T23:36:31.900Z,5.36
2023-04-16T23:38:59.405Z,5.37
2023-04-16T23:41:26.944Z,5.40
2023-04-16T23:43:54.536Z,5.42
2023-04-16T23:46:22.141Z,5.44
2023-04-16T23:48:49.675Z,5.48
2023-04-16T23:51:17.194Z,5.53
2023-04-16T23:53:44.776Z,5.58
2023-04-16T23:56:12.317Z,5.63
2023-04-16T23:58:39.847Z,5.66
